createdAt,value
2018-05-27T00:02:09.081Z,99.90
2018-05-27T00:04:35.279Z,99.90
2018-05-27T00:07:02.242Z,99.90
2018-05-27T00:09:28.431Z,99.90
2018-05-27T00:11:54.654Z,99.90
2018-05-27T00:14:20.858Z,99.90
2018-05-27T00:16:47.087Z,99.90
2018-05-27T00:19:13.283Z,99.90
2018-05-27T00:21:39.571Z,99.90
2018-05-27T00:24:05.798Z,99.90
2018-05-27T00:26:32.017Z,99.90
2018-05-27T00:28:58.210Z,99.90
2018-05-27T00:31:24.423Z,99.90
2018-05-27T00:33:50.626Z,99.90
2018-05-27T00:36:18.326Z,99.90
2018-05-27T00:38:44.585Z,99.90
2018-05-27T00:41:10.772Z,99.90
2018-05-27T00:43:37.745Z,99.90
2018-05-27T00:46:03.943Z,99.90
2018-05-27T00:48:30.910Z,99.90
2018-05-27T00:50:57.179Z,99.90
2018-05-27T00:53:35.858Z,99.90
2018-05-27T00:56:02.047Z,99.90
2018-05-27T00:58:29.011Z,99.90
2018-05-27T01:00:55.946Z,99.90
2018-05-27T01:03:22.917Z,99.90
2018-05-27T01:05:49.115Z,99.90
2018-05-27T01:08:15.354Z,99.90
2018-05-27T01:10:42.301Z,99.90
2018-05-27T01:13:08.556Z,99.90
2018-05-27T01:15:34.759Z,99.90
2018-05-27T01:18:01.744Z,99.90
2018-05-27T01:20:27.943Z,99.90
2018-05-27T01:22:55.675Z,99.90
2018-05-27T01:25:22.304Z,99.90
2018-05-27T01:27:49.428Z,99.90
2018-05-27T01:30:23.157Z,99.90
2018-05-27T01:32:49.405Z,99.90
2018-05-27T01:35:17.087Z,99.90
2018-05-27T01:37:44.047Z,99.90
2018-05-27T01:40:10.240Z,99.90
2018-05-27T01:42:37.950Z,99.90
2018-05-27T01:45:04.151Z,99.90
2018-05-27T01:47:31.103Z,99.90
2018-05-27T01:49:58.126Z,99.90
2018-05-27T01:52:24.327Z,99.90
2018-05-27T01:54:50.576Z,99.90
2018-05-27T01:57:16.771Z,99.90
2018-05-27T01:59:42.992Z,99.90
2018-05-27T02:02:09.187Z,99.90
2018-05-27T02:04:36.160Z,99.90
2018-05-27T02:07:02.346Z,99.90
2018-05-27T02:09:29.299Z,99.90
2018-05-27T02:11:56.251Z,99.90
2018-05-27T02:14:23.220Z,99.90
2018-05-27T02:16:49.436Z,99.90
2018-05-27T02:19:16.395Z,99.90
2018-05-27T02:21:42.588Z,99.90
2018-05-27T02:24:08.806Z,99.90
2018-05-27T02:26:34.996Z,99.90
2018-05-27T02:29:01.207Z,99.90
2018-05-27T02:31:27.403Z,99.90
2018-05-27T02:33:54.368Z,99.90
2018-05-27T02:36:21.312Z,99.90
2018-05-27T02:38:48.273Z,99.90
2018-05-27T02:41:14.541Z,99.90
2018-05-27T02:43:40.783Z,99.90
2018-05-27T02:46:06.987Z,99.90
2018-05-27T02:48:33.179Z,99.90
2018-05-27T02:50:59.409Z,99.90
2018-05-27T02:53:25.647Z,99.90
2018-05-27T02:55:51.873Z,99.90
2018-05-27T02:58:18.080Z,99.90
2018-05-27T03:00:45.039Z,99.90
2018-05-27T03:03:12.043Z,99.90
2018-05-27T03:05:38.263Z,99.90
2018-05-27T03:08:04.458Z,99.90
2018-05-27T03:10:30.679Z,99.90
2018-05-27T03:12:57.613Z,99.90
2018-05-27T03:15:24.603Z,99.90
2018-05-27T03:17:50.804Z,99.90
2018-05-27T03:20:17.839Z,99.90
2018-05-27T03:22:44.778Z,99.90
2018-05-27T03:25:11.738Z,99.90
2018-05-27T03:27:38.670Z,99.90
2018-05-27T03:30:05.644Z,99.90
2018-05-27T03:32:31.861Z,99.90
2018-05-27T03:34:58.843Z,99.90
2018-05-27T03:37:25.035Z,99.90
2018-05-27T03:39:52.008Z,99.90
2018-05-27T03:42:18.214Z,99.90
2018-05-27T03:44:44.460Z,99.90
2018-05-27T03:47:10.655Z,99.90
2018-05-27T03:49:37.586Z,99.90
2018-05-27T03:52:04.547Z,99.90
2018-05-27T03:54:31.513Z,99.90
2018-05-27T03:56:57.739Z,99.90
2018-05-27T03:59:23.943Z,99.90
2018-05-27T04:01:50.914Z,99.90
2018-05-27T04:04:29.467Z,99.90
2018-05-27T04:07:08.084Z,99.90
2018-05-27T04:09:34.288Z,99.90
2018-05-27T04:12:01.334Z,99.90
2018-05-27T04:14:27.534Z,99.90
2018-05-27T04:16:53.750Z,99.90
2018-05-27T04:19:19.947Z,99.90
2018-05-27T04:21:46.172Z,99.90
2018-05-27T04:24:12.370Z,99.90
2018-05-27T04:26:38.595Z,99.90
2018-05-27T04:29:05.527Z,99.90
2018-05-27T04:31:32.494Z,99.90
2018-05-27T04:33:58.694Z,99.90
2018-05-27T04:36:32.725Z,99.90
2018-05-27T04:38:59.642Z,99.90
2018-05-27T04:41:25.859Z,99.90
2018-05-27T04:43:52.091Z,99.90
2018-05-27T04:46:18.347Z,99.90
2018-05-27T04:48:45.293Z,99.90
2018-05-27T04:51:12.232Z,99.90
2018-05-27T04:53:39.218Z,99.90
2018-05-27T04:56:05.420Z,99.90
2018-05-27T04:58:32.387Z,99.90
2018-05-27T05:00:58.586Z,99.90
2018-05-27T05:03:24.806Z,99.90
2018-05-27T05:05:51.008Z,99.90
2018-05-27T05:08:17.300Z,99.90
2018-05-27T05:10:43.495Z,99.90
2018-05-27T05:13:09.747Z,99.90
2018-05-27T05:15:37.030Z,99.90
2018-05-27T05:18:03.331Z,99.90
2018-05-27T05:20:30.274Z,99.90
2018-05-27T05:22:57.212Z,99.90
2018-05-27T05:25:24.173Z,99.90
2018-05-27T05:27:50.372Z,99.90
2018-05-27T05:30:17.335Z,99.90
2018-05-27T05:32:44.280Z,99.90
2018-05-27T05:35:11.250Z,99.90
2018-05-27T05:37:37.444Z,99.90
2018-05-27T05:40:03.671Z,99.90
2018-05-27T05:42:29.872Z,99.90
2018-05-27T05:44:56.103Z,99.90
2018-05-27T05:47:22.303Z,99.90
2018-05-27T05:49:48.522Z,99.90
2018-05-27T05:52:14.724Z,99.90
2018-05-27T05:54:41.702Z,99.90
2018-05-27T05:57:07.903Z,99.90
2018-05-27T05:59:34.863Z,99.90
2018-05-27T06:02:01.059Z,99.90
2018-05-27T06:04:27.314Z,99.90
2018-05-27T06:06:54.275Z,99.90
2018-05-27T06:09:20.518Z,99.90
2018-05-27T06:11:46.707Z,99.90
2018-05-27T06:14:13.642Z,99.90
2018-05-27T06:16:39.863Z,99.90
2018-05-27T06:19:07.551Z,99.90
2018-05-27T06:21:34.578Z,99.90
2018-05-27T06:24:01.549Z,99.90
2018-05-27T06:26:28.514Z,99.90
2018-05-27T06:28:54.707Z,99.90
2018-05-27T06:31:21.667Z,99.90
2018-05-27T06:33:48.614Z,99.90
2018-05-27T06:36:15.576Z,99.90
2018-05-27T06:38:41.769Z,99.90
2018-05-27T06:41:07.991Z,99.90
2018-05-27T06:43:34.197Z,99.90
2018-05-27T06:46:00.418Z,99.90
2018-05-27T06:48:26.609Z,99.90
2018-05-27T06:50:53.572Z,99.90
2018-05-27T06:53:19.767Z,99.90
2018-05-27T06:55:45.982Z,99.90
2018-05-27T06:58:12.180Z,99.90
2018-05-27T07:00:38.407Z,99.90
2018-05-27T07:03:04.622Z,99.90
2018-05-27T07:05:30.847Z,99.90
2018-05-27T07:07:57.047Z,99.90
2018-05-27T07:10:24.016Z,99.90
2018-05-27T07:12:50.206Z,99.90
2018-05-27T07:15:16.440Z,99.90
2018-05-27T07:17:42.634Z,99.90
2018-05-27T07:20:08.859Z,99.90
2018-05-27T07:22:35.051Z,99.90
2018-05-27T07:25:01.256Z,99.90
2018-05-27T07:27:27.480Z,99.90
2018-05-27T07:29:53.895Z,99.90
2018-05-27T07:32:20.157Z,99.90
2018-05-27T07:34:46.322Z,99.90
2018-05-27T07:37:12.551Z,99.90
2018-05-27T07:39:38.747Z,99.90
2018-05-27T07:42:05.715Z,99.90
2018-05-27T07:44:31.911Z,99.90
2018-05-27T07:46:58.127Z,99.90
2018-05-27T07:49:24.381Z,99.90
2018-05-27T07:51:51.340Z,99.90
2018-05-27T07:54:17.539Z,99.90
2018-05-27T07:56:43.763Z,99.90
2018-05-27T07:59:09.963Z,99.60
2018-05-27T08:01:36.207Z,97.20
2018-05-27T08:04:02.408Z,97.80
2018-05-27T08:06:28.630Z,96.50
2018-05-27T08:08:54.818Z,97.20
2018-05-27T08:11:22.039Z,95.10
2018-05-27T08:13:48.261Z,95.00
2018-05-27T08:16:14.523Z,95.60
2018-05-27T08:18:40.747Z,94.80
2018-05-27T08:21:08.440Z,94.50
2018-05-27T08:23:35.399Z,95.80
2018-05-27T08:26:01.664Z,95.80
2018-05-27T08:28:27.880Z,95.50
2018-05-27T08:30:54.071Z,96.20
2018-05-27T08:33:21.032Z,93.90
2018-05-27T08:35:47.227Z,93.90
2018-05-27T08:38:13.438Z,93.10
2018-05-27T08:40:39.631Z,92.60
2018-05-27T08:43:05.854Z,90.50
2018-05-27T08:45:32.046Z,90.30
2018-05-27T08:47:59.011Z,87.70
2018-05-27T08:50:25.198Z,87.60
2018-05-27T08:52:51.418Z,84.40
2018-05-27T08:55:17.610Z,84.50
2018-05-27T08:57:43.858Z,82.00
2018-05-27T09:00:10.050Z,80.20
2018-05-27T09:02:36.299Z,80.10
2018-05-27T09:05:02.519Z,78.20
2018-05-27T09:07:28.719Z,78.40
2018-05-27T09:09:55.678Z,78.30
2018-05-27T09:12:22.619Z,80.00
2018-05-27T09:14:49.594Z,78.20
2018-05-27T09:17:15.803Z,78.20
2018-05-27T09:19:42.766Z,81.00
2018-05-27T09:22:09.341Z,81.00
2018-05-27T09:24:35.562Z,78.80
2018-05-27T09:27:01.796Z,78.20
2018-05-27T09:29:28.067Z,80.60
2018-05-27T09:31:55.015Z,80.70
2018-05-27T09:34:21.978Z,78.20
2018-05-27T09:36:48.179Z,78.20
2018-05-27T09:39:15.160Z,76.50
2018-05-27T09:41:41.367Z,76.50
2018-05-27T09:44:08.331Z,75.80
2018-05-27T09:46:34.614Z,75.70
2018-05-27T09:49:00.846Z,71.30
2018-05-27T09:51:27.110Z,70.20
2018-05-27T09:53:54.052Z,70.30
2018-05-27T09:56:20.990Z,67.40
2018-05-27T09:58:47.957Z,68.10
2018-05-27T10:01:14.179Z,68.10
2018-05-27T10:03:40.423Z,64.50
2018-05-27T10:06:06.661Z,62.00
2018-05-27T10:08:32.879Z,62.00
2018-05-27T10:10:59.090Z,63.00
2018-05-27T10:13:25.324Z,62.60
2018-05-27T10:15:51.530Z,61.90
2018-05-27T10:18:18.524Z,60.40
2018-05-27T10:20:44.734Z,60.30
2018-05-27T10:23:11.007Z,61.00
2018-05-27T10:25:37.983Z,64.30
2018-05-27T10:28:04.946Z,63.60
2018-05-27T10:30:31.143Z,63.70
2018-05-27T10:32:57.372Z,62.70
2018-05-27T10:35:23.575Z,64.80
2018-05-27T10:37:49.797Z,66.90
2018-05-27T10:40:16.001Z,63.90
2018-05-27T10:42:42.219Z,64.70
2018-05-27T10:45:09.168Z,65.80
2018-05-27T10:47:35.383Z,65.90
2018-05-27T10:50:02.327Z,60.60
2018-05-27T10:52:29.254Z,59.70
2018-05-27T10:54:55.475Z,59.60
2018-05-27T10:57:22.447Z,56.00
2018-05-27T10:59:49.420Z,57.30
2018-05-27T11:02:15.644Z,57.30
2018-05-27T11:04:41.858Z,55.80
2018-05-27T11:07:08.803Z,57.40
2018-05-27T11:09:35.768Z,57.40
2018-05-27T11:12:02.031Z,57.40
2018-05-27T11:14:28.255Z,58.70
2018-05-27T11:16:54.446Z,56.90
2018-05-27T11:19:20.667Z,56.00
2018-05-27T11:21:54.707Z,57.90
2018-05-27T11:24:20.922Z,57.90
2018-05-27T11:26:47.122Z,60.90
2018-05-27T11:29:14.075Z,58.00
2018-05-27T11:31:41.015Z,57.20
2018-05-27T11:34:07.979Z,58.00
2018-05-27T11:36:34.177Z,58.00
2018-05-27T11:39:00.394Z,56.50
2018-05-27T11:41:26.598Z,55.70
2018-05-27T11:43:52.827Z,53.40
2018-05-27T11:46:19.018Z,54.00
2018-05-27T11:48:45.264Z,54.00
2018-05-27T11:51:11.503Z,52.90
2018-05-27T11:53:37.703Z,53.60
2018-05-27T11:56:04.663Z,50.30
2018-05-27T11:58:30.858Z,50.20
2018-05-27T12:00:57.073Z,49.10
2018-05-27T12:03:23.300Z,47.80
2018-05-27T12:05:49.528Z,48.50
2018-05-27T12:08:15.727Z,49.20
2018-05-27T12:10:41.946Z,48.60
2018-05-27T12:13:08.210Z,47.60
2018-05-27T12:15:35.211Z,47.20
2018-05-27T12:18:01.407Z,47.10
2018-05-27T12:20:28.375Z,45.80
2018-05-27T12:22:55.323Z,47.00
2018-05-27T12:25:21.543Z,46.30
2018-05-27T12:27:48.476Z,45.10
2018-05-27T12:30:15.442Z,45.10
2018-05-27T12:32:41.634Z,45.00
2018-05-27T12:35:07.851Z,44.60
2018-05-27T12:37:34.052Z,43.90
2018-05-27T12:40:00.268Z,44.10
2018-05-27T12:42:26.467Z,44.60
2018-05-27T12:44:53.427Z,45.30
2018-05-27T12:47:20.359Z,43.10
2018-05-27T12:49:47.323Z,42.20
2018-05-27T12:52:13.512Z,42.80
2018-05-27T12:54:39.731Z,43.10
2018-05-27T12:57:05.959Z,42.90
2018-05-27T12:59:32.150Z,42.20
2018-05-27T13:01:58.403Z,42.30
2018-05-27T13:04:24.602Z,41.40
2018-05-27T13:06:50.820Z,41.20
2018-05-27T13:09:17.019Z,42.10
2018-05-27T13:11:43.332Z,41.40
2018-05-27T13:14:09.526Z,40.00
2018-05-27T13:16:35.877Z,40.10
2018-05-27T13:19:01.996Z,40.30
2018-05-27T13:21:28.285Z,40.50
2018-05-27T13:23:54.519Z,40.60
2018-05-27T13:26:21.478Z,39.40
2018-05-27T13:28:47.682Z,39.30
2018-05-27T13:31:14.642Z,41.70
2018-05-27T13:33:41.574Z,42.90
2018-05-27T13:36:08.543Z,42.30
2018-05-27T13:38:34.729Z,42.20
2018-05-27T13:41:00.950Z,44.30
2018-05-27T13:43:27.151Z,44.10
2018-05-27T13:45:53.363Z,42.30
2018-05-27T13:48:19.564Z,43.80
2018-05-27T13:50:46.524Z,43.50
2018-05-27T13:53:13.479Z,44.00
2018-05-27T13:55:39.675Z,43.90
2018-05-27T13:58:06.638Z,43.40
2018-05-27T14:00:33.571Z,44.00
2018-05-27T14:03:00.553Z,44.80
2018-05-27T14:05:26.787Z,44.70
2018-05-27T14:07:53.079Z,45.00
2018-05-27T14:10:20.022Z,43.80
2018-05-27T14:12:46.987Z,45.00
2018-05-27T14:15:13.931Z,43.60
2018-05-27T14:17:40.886Z,44.10
2018-05-27T14:20:07.081Z,44.10
2018-05-27T14:22:33.307Z,44.30
2018-05-27T14:24:59.502Z,44.60
2018-05-27T14:27:25.730Z,44.10
2018-05-27T14:29:51.926Z,43.80
2018-05-27T14:32:18.188Z,43.30
2018-05-27T14:34:44.387Z,44.30
2018-05-27T14:37:10.671Z,43.80
2018-05-27T14:39:36.866Z,44.20
2018-05-27T14:42:03.086Z,44.70
2018-05-27T14:44:29.283Z,44.70
2018-05-27T14:46:56.256Z,44.20
2018-05-27T14:49:22.455Z,44.10
2018-05-27T14:51:49.419Z,45.30
2018-05-27T14:54:15.614Z,45.30
2018-05-27T14:56:41.839Z,45.80
2018-05-27T14:59:08.036Z,47.60
2018-05-27T15:01:34.261Z,46.30
2018-05-27T15:04:00.490Z,46.90
2018-05-27T15:06:26.720Z,47.80
2018-05-27T15:08:52.947Z,48.30
2018-05-27T15:11:19.183Z,48.50
2018-05-27T15:13:45.383Z,48.40
2018-05-27T15:16:11.667Z,48.30
2018-05-27T15:18:38.629Z,48.60
2018-05-27T15:21:04.848Z,48.60
2018-05-27T15:23:31.109Z,48.70
2018-05-27T15:25:57.331Z,49.10
2018-05-27T15:28:24.270Z,48.20
2018-05-27T15:30:51.234Z,49.30
2018-05-27T15:33:17.427Z,49.30
2018-05-27T15:35:43.643Z,49.30
2018-05-27T15:38:09.855Z,49.80
2018-05-27T15:40:36.855Z,50.50
2018-05-27T15:43:03.790Z,50.80
2018-05-27T15:45:30.759Z,52.50
2018-05-27T15:47:56.950Z,52.40
2018-05-27T15:50:23.163Z,52.20
2018-05-27T15:52:49.350Z,53.70
2018-05-27T15:55:15.578Z,55.10
2018-05-27T15:57:41.781Z,55.90
2018-05-27T16:00:08.995Z,58.60
2018-05-27T16:02:35.210Z,58.60
2018-05-27T16:05:01.409Z,59.50
2018-05-27T16:07:27.635Z,59.20
2018-05-27T16:09:53.831Z,59.50
2018-05-27T16:12:20.055Z,60.70
2018-05-27T16:14:46.254Z,60.50
2018-05-27T16:17:12.489Z,60.20
2018-05-27T16:19:38.731Z,60.80
2018-05-27T16:22:04.931Z,62.00
2018-05-27T16:24:31.152Z,62.30
2018-05-27T16:26:57.523Z,61.40
2018-05-27T16:29:23.718Z,62.10
2018-05-27T16:31:49.942Z,62.60
2018-05-27T16:34:16.167Z,63.40
2018-05-27T16:36:42.387Z,63.00
2018-05-27T16:39:09.339Z,63.80
2018-05-27T16:41:35.534Z,63.70
2018-05-27T16:44:01.755Z,64.20
2018-05-27T16:46:27.951Z,64.40
2018-05-27T16:48:54.171Z,65.40
2018-05-27T16:51:20.439Z,66.20
2018-05-27T16:53:46.658Z,65.50
2018-05-27T16:56:12.862Z,66.30
2018-05-27T16:58:39.083Z,67.00
2018-05-27T17:01:05.299Z,66.80
2018-05-27T17:03:31.520Z,67.20
2018-05-27T17:05:57.723Z,68.20
2018-05-27T17:08:24.678Z,69.50
2018-05-27T17:10:51.614Z,70.00
2018-05-27T17:13:18.576Z,70.10
2018-05-27T17:15:45.567Z,70.40
2018-05-27T17:18:11.767Z,70.30
2018-05-27T17:20:37.986Z,71.00
2018-05-27T17:23:04.275Z,71.80
2018-05-27T17:25:30.474Z,72.60
2018-05-27T17:27:56.675Z,72.80
2018-05-27T17:30:22.918Z,73.80
2018-05-27T17:32:49.115Z,74.40
2018-05-27T17:35:16.075Z,75.20
2018-05-27T17:37:43.067Z,75.70
2018-05-27T17:40:09.290Z,75.60
2018-05-27T17:42:35.519Z,76.10
2018-05-27T17:45:01.743Z,77.10
2018-05-27T17:47:27.938Z,76.90
2018-05-27T17:49:54.162Z,77.00
2018-05-27T17:52:20.380Z,78.30
2018-05-27T17:54:47.354Z,78.40
2018-05-27T17:57:13.555Z,78.20
2018-05-27T17:59:40.526Z,80.10
2018-05-27T18:02:06.759Z,80.10
2018-05-27T18:04:32.990Z,81.30
2018-05-27T18:06:59.193Z,84.50
2018-05-27T18:09:26.159Z,89.20
2018-05-27T18:11:52.355Z,89.20
2018-05-27T18:14:19.333Z,90.30
2018-05-27T18:16:45.544Z,90.30
2018-05-27T18:19:12.515Z,91.80
2018-05-27T18:21:38.716Z,91.80
2018-05-27T18:24:05.004Z,92.40
2018-05-27T18:26:31.208Z,92.30
2018-05-27T18:28:57.408Z,92.70
2018-05-27T18:31:23.630Z,93.50
2018-05-27T18:33:50.642Z,94.00
2018-05-27T18:36:16.873Z,93.90
2018-05-27T18:38:43.090Z,95.30
2018-05-27T18:41:09.319Z,96.00
2018-05-27T18:43:35.527Z,97.30
2018-05-27T18:46:01.747Z,98.90
2018-05-27T18:48:27.944Z,99.90
2018-05-27T18:50:54.915Z,99.90
2018-05-27T18:53:21.110Z,99.90
2018-05-27T18:55:48.079Z,99.90
2018-05-27T18:58:14.290Z,99.90
2018-05-27T19:00:41.279Z,99.90
2018-05-27T19:03:07.475Z,99.90
2018-05-27T19:05:34.447Z,99.90
2018-05-27T19:08:00.634Z,99.90
2018-05-27T19:10:26.879Z,99.90
2018-05-27T19:12:53.814Z,99.90
2018-05-27T19:15:20.838Z,99.90
2018-05-27T19:17:47.034Z,99.90
2018-05-27T19:20:13.259Z,99.90
2018-05-27T19:22:39.451Z,99.90
2018-05-27T19:25:06.418Z,99.90
2018-05-27T19:27:32.611Z,99.90
2018-05-27T19:29:58.835Z,99.90
2018-05-27T19:32:25.039Z,99.90
2018-05-27T19:34:51.255Z,99.90
2018-05-27T19:37:17.458Z,99.90
2018-05-27T19:39:43.743Z,99.90
2018-05-27T19:42:09.959Z,99.90
2018-05-27T19:44:37.651Z,99.90
2018-05-27T19:47:03.879Z,99.90
2018-05-27T19:49:30.103Z,99.90
2018-05-27T19:51:56.303Z,99.90
2018-05-27T19:54:22.527Z,99.90
2018-05-27T19:56:48.734Z,99.90
2018-05-27T19:59:15.100Z,99.90
2018-05-27T20:01:41.319Z,99.90
2018-05-27T20:04:07.516Z,99.90
2018-05-27T20:06:33.739Z,99.90
2018-05-27T20:08:59.934Z,99.90
2018-05-27T20:11:27.637Z,99.90
2018-05-27T20:13:53.826Z,99.90
2018-05-27T20:16:20.050Z,99.90
2018-05-27T20:18:47.723Z,99.90
2018-05-27T20:21:13.945Z,99.90
2018-05-27T20:23:40.149Z,99.90
2018-05-27T20:26:06.374Z,99.90
2018-05-27T20:28:32.567Z,99.90
2018-05-27T20:30:58.819Z,99.90
2018-05-27T20:33:25.015Z,99.90
2018-05-27T20:35:52.427Z,99.90
2018-05-27T20:38:18.619Z,99.90
2018-05-27T20:40:44.811Z,99.90
2018-05-27T20:43:11.031Z,99.90
2018-05-27T20:45:37.291Z,99.90
2018-05-27T20:48:03.510Z,99.90
2018-05-27T20:50:30.449Z,99.90
2018-05-27T20:52:57.412Z,99.90
2018-05-27T20:55:23.607Z,99.90
2018-05-27T20:57:49.818Z,99.90
2018-05-27T21:00:16.013Z,99.90
2018-05-27T21:02:42.258Z,99.90
2018-05-27T21:05:08.455Z,99.90
2018-05-27T21:07:34.671Z,99.90
2018-05-27T21:10:01.610Z,99.90
2018-05-27T21:12:28.577Z,99.90
2018-05-27T21:15:01.658Z,99.90
2018-05-27T21:17:28.615Z,99.90
2018-05-27T21:19:54.810Z,99.90
2018-05-27T21:22:21.031Z,99.90
2018-05-27T21:24:47.227Z,99.90
2018-05-27T21:27:13.464Z,99.90
2018-05-27T21:29:39.664Z,99.90
2018-05-27T21:32:05.882Z,99.90
2018-05-27T21:34:32.078Z,99.90
2018-05-27T21:36:58.291Z,99.90
2018-05-27T21:39:24.477Z,99.90
2018-05-27T21:41:50.674Z,99.90
2018-05-27T21:44:17.635Z,99.90
2018-05-27T21:46:44.574Z,99.90
2018-05-27T21:49:11.536Z,99.90
2018-05-27T21:51:37.731Z,99.90
2018-05-27T21:54:03.953Z,99.90
2018-05-27T21:56:30.142Z,99.90
2018-05-27T21:58:56.363Z,99.90
2018-05-27T22:01:22.591Z,99.90
2018-05-27T22:03:48.807Z,99.90
2018-05-27T22:06:15.131Z,99.90
2018-05-27T22:08:42.786Z,99.90
2018-05-27T22:11:09.731Z,99.90
2018-05-27T22:13:36.690Z,99.90
2018-05-27T22:16:02.883Z,99.90
2018-05-27T22:18:29.102Z,99.90
2018-05-27T22:20:55.315Z,99.90
2018-05-27T22:23:21.603Z,99.90
2018-05-27T22:25:47.805Z,99.90
2018-05-27T22:28:14.019Z,99.90
2018-05-27T22:30:40.211Z,99.90
2018-05-27T22:33:06.426Z,99.90
2018-05-27T22:35:32.615Z,99.90
2018-05-27T22:37:58.834Z,99.90
2018-05-27T22:40:25.030Z,99.90
2018-05-27T22:42:51.250Z,99.90
2018-05-27T22:45:17.476Z,99.90
2018-05-27T22:47:43.671Z,99.90
2018-05-27T22:50:10.630Z,99.90
2018-05-27T22:52:37.571Z,99.90
2018-05-27T22:55:04.530Z,99.90
2018-05-27T22:57:30.722Z,99.90
2018-05-27T22:59:56.939Z,99.90
2018-05-27T23:02:23.162Z,99.90
2018-05-27T23:04:49.382Z,99.90
2018-05-27T23:07:15.602Z,99.90
2018-05-27T23:09:41.818Z,99.90
2018-05-27T23:12:08.010Z,99.90
2018-05-27T23:14:35.030Z,99.90
2018-05-27T23:17:01.222Z,99.90
2018-05-27T23:19:27.458Z,99.90
2018-05-27T23:22:00.707Z,99.90
2018-05-27T23:24:27.703Z,99.90
2018-05-27T23:26:53.897Z,99.90
2018-05-27T23:29:20.830Z,99.90
2018-05-27T23:31:47.788Z,99.90
2018-05-27T23:34:14.733Z,99.90
2018-05-27T23:36:41.702Z,99.90
2018-05-27T23:39:07.899Z,99.90
2018-05-27T23:41:34.859Z,99.90
2018-05-27T23:44:01.096Z,99.90
2018-05-27T23:46:27.315Z,99.90
2018-05-27T23:48:53.510Z,99.90
2018-05-27T23:51:19.754Z,99.90
2018-05-27T23:53:46.693Z,99.90
2018-05-27T23:56:12.906Z,99.90
2018-05-27T23:58:39.131Z,99.90
